sensor_id;sensor_type;location;lat;lon;timestamp;P1;durP1;ratioP1;P2;durP2;ratioP2
17228;SDS011;8731;50.364;8.958;2023-02-11T00:02:25;56.00;;;37.17;;
17228;SDS011;8731;50.364;8.958;2023-02-11T00:06:50;46.43;;;30.40;;
17228;SDS011;8731;50.364;8.958;2023-02-11T00:11:12;49.10;;;30.23;;
17228;SDS011;8731;50.364;8.958;2023-02-11T00:15:35;48.43;;;30.53;;
17228;SDS011;8731;50.364;8.958;2023-02-11T00:19:58;47.27;;;30.07;;
17228;SDS011;8731;50.364;8.958;2023-02-11T00:24:21;45.63;;;28.90;;
17228;SDS011;8731;50.364;8.958;2023-02-11T00:28:44;45.27;;;29.03;;
17228;SDS011;8731;50.364;8.958;2023-02-11T00:33:08;44.17;;;29.40;;
17228;SDS011;8731;50.364;8.958;2023-02-11T00:37:30;51.43;;;30.13;;
17228;SDS011;8731;50.364;8.958;2023-02-11T00:41:57;45.47;;;28.37;;
17228;SDS011;8731;50.364;8.958;2023-02-11T00:46:20;44.87;;;28.90;;
17228;SDS011;8731;50.364;8.958;2023-02-11T00:50:43;46.53;;;29.93;;
17228;SDS011;8731;50.364;8.958;2023-02-11T00:55:06;46.57;;;31.00;;
17228;SDS011;8731;50.364;8.958;2023-02-11T00:59:30;46.40;;;28.97;;
17228;SDS011;8731;50.364;8.958;2023-02-11T01:03:54;45.03;;;28.80;;
17228;SDS011;8731;50.364;8.958;2023-02-11T01:08:16;48.07;;;30.77;;
17228;SDS011;8731;50.364;8.958;2023-02-11T01:12:39;43.17;;;29.23;;
17228;SDS011;8731;50.364;8.958;2023-02-11T01:17:04;45.67;;;29.37;;
17228;SDS011;8731;50.364;8.958;2023-02-11T01:21:26;45.80;;;29.63;;
17228;SDS011;8731;50.364;8.958;2023-02-11T01:25:48;45.73;;;29.57;;
17228;SDS011;8731;50.364;8.958;2023-02-11T01:30:11;45.57;;;30.20;;
17228;SDS011;8731;50.364;8.958;2023-02-11T01:34:36;46.73;;;29.90;;
17228;SDS011;8731;50.364;8.958;2023-02-11T01:38:58;45.53;;;29.60;;
17228;SDS011;8731;50.364;8.958;2023-02-11T01:43:21;44.70;;;30.10;;
17228;SDS011;8731;50.364;8.958;2023-02-11T01:47:45;51.60;;;30.70;;
17228;SDS011;8731;50.364;8.958;2023-02-11T01:52:09;44.80;;;29.40;;
17228;SDS011;8731;50.364;8.958;2023-02-11T01:56:41;44.33;;;29.33;;
17228;SDS011;8731;50.364;8.958;2023-02-11T02:01:27;42.13;;;28.47;;
17228;SDS011;8731;50.364;8.958;2023-02-11T02:05:52;47.20;;;30.27;;
17228;SDS011;8731;50.364;8.958;2023-02-11T02:10:25;41.87;;;29.57;;
17228;SDS011;8731;50.364;8.958;2023-02-11T02:14:49;45.17;;;28.93;;
17228;SDS011;8731;50.364;8.958;2023-02-11T02:19:23;44.60;;;28.97;;
17228;SDS011;8731;50.364;8.958;2023-02-11T02:24:37;44.00;;;29.03;;
17228;SDS011;8731;50.364;8.958;2023-02-11T02:29:33;44.00;;;29.67;;
17228;SDS011;8731;50.364;8.958;2023-02-11T02:34:26;43.97;;;30.57;;
17228;SDS011;8731;50.364;8.958;2023-02-11T02:38:59;42.97;;;29.27;;
17228;SDS011;8731;50.364;8.958;2023-02-11T02:43:27;47.00;;;29.57;;
17228;SDS011;8731;50.364;8.958;2023-02-11T02:47:51;45.77;;;29.77;;
17228;SDS011;8731;50.364;8.958;2023-02-11T02:52:20;43.27;;;29.90;;
17228;SDS011;8731;50.364;8.958;2023-02-11T02:56:56;46.37;;;30.93;;
17228;SDS011;8731;50.364;8.958;2023-02-11T03:01:36;45.10;;;31.97;;
17228;SDS011;8731;50.364;8.958;2023-02-11T03:06:11;42.87;;;29.97;;
17228;SDS011;8731;50.364;8.958;2023-02-11T03:10:44;45.27;;;30.87;;
17228;SDS011;8731;50.364;8.958;2023-02-11T03:15:11;49.47;;;32.07;;
17228;SDS011;8731;50.364;8.958;2023-02-11T03:19:36;46.33;;;31.03;;
17228;SDS011;8731;50.364;8.958;2023-02-11T03:24:05;49.50;;;32.33;;
17228;SDS011;8731;50.364;8.958;2023-02-11T03:28:34;48.27;;;31.53;;
17228;SDS011;8731;50.364;8.958;2023-02-11T03:33:06;48.23;;;31.03;;
17228;SDS011;8731;50.364;8.958;2023-02-11T03:37:39;47.90;;;32.00;;
17228;SDS011;8731;50.364;8.958;2023-02-11T03:42:11;49.30;;;32.10;;
17228;SDS011;8731;50.364;8.958;2023-02-11T03:46:38;51.43;;;32.73;;
17228;SDS011;8731;50.364;8.958;2023-02-11T03:51:06;47.73;;;31.57;;
17228;SDS011;8731;50.364;8.958;2023-02-11T03:55:32;50.60;;;31.83;;
17228;SDS011;8731;50.364;8.958;2023-02-11T03:59:58;45.00;;;31.70;;
17228;SDS011;8731;50.364;8.958;2023-02-11T04:04:22;48.67;;;31.67;;
17228;SDS011;8731;50.364;8.958;2023-02-11T04:08:44;50.63;;;32.90;;
17228;SDS011;8731;50.364;8.958;2023-02-11T04:13:06;49.17;;;31.33;;
17228;SDS011;8731;50.364;8.958;2023-02-11T04:17:29;48.77;;;33.10;;
17228;SDS011;8731;50.364;8.958;2023-02-11T04:21:52;48.00;;;32.40;;
17228;SDS011;8731;50.364;8.958;2023-02-11T04:26:14;50.33;;;31.90;;
17228;SDS011;8731;50.364;8.958;2023-02-11T04:30:37;48.53;;;32.67;;
17228;SDS011;8731;50.364;8.958;2023-02-11T04:34:59;49.97;;;33.37;;
17228;SDS011;8731;50.364;8.958;2023-02-11T04:39:23;45.83;;;31.63;;
17228;SDS011;8731;50.364;8.958;2023-02-11T04:43:45;49.93;;;32.47;;
17228;SDS011;8731;50.364;8.958;2023-02-11T04:48:07;54.07;;;33.80;;
17228;SDS011;8731;50.364;8.958;2023-02-11T04:52:30;47.50;;;31.83;;
17228;SDS011;8731;50.364;8.958;2023-02-11T04:56:53;45.97;;;30.93;;
17228;SDS011;8731;50.364;8.958;2023-02-11T05:01:15;44.03;;;30.80;;
17228;SDS011;8731;50.364;8.958;2023-02-11T05:05:38;49.40;;;31.30;;
17228;SDS011;8731;50.364;8.958;2023-02-11T05:10:01;51.57;;;33.07;;
17228;SDS011;8731;50.364;8.958;2023-02-11T05:14:25;47.80;;;31.97;;
17228;SDS011;8731;50.364;8.958;2023-02-11T05:18:47;50.40;;;32.70;;
17228;SDS011;8731;50.364;8.958;2023-02-11T05:23:10;49.97;;;32.80;;
17228;SDS011;8731;50.364;8.958;2023-02-11T05:27:32;47.63;;;31.10;;
17228;SDS011;8731;50.364;8.958;2023-02-11T05:31:56;52.10;;;32.47;;
17228;SDS011;8731;50.364;8.958;2023-02-11T05:36:19;50.50;;;33.17;;
17228;SDS011;8731;50.364;8.958;2023-02-11T05:40:42;46.07;;;31.33;;
17228;SDS011;8731;50.364;8.958;2023-02-11T05:45:04;47.83;;;31.43;;
17228;SDS011;8731;50.364;8.958;2023-02-11T05:49:29;48.13;;;32.30;;
17228;SDS011;8731;50.364;8.958;2023-02-11T05:53:51;45.33;;;30.57;;
17228;SDS011;8731;50.364;8.958;2023-02-11T05:58:14;49.97;;;32.37;;
17228;SDS011;8731;50.364;8.958;2023-02-11T06:02:37;47.77;;;32.13;;
17228;SDS011;8731;50.364;8.958;2023-02-11T06:07:00;48.03;;;32.43;;
17228;SDS011;8731;50.364;8.958;2023-02-11T06:11:22;47.80;;;32.57;;
17228;SDS011;8731;50.364;8.958;2023-02-11T06:15:53;48.03;;;32.80;;
17228;SDS011;8731;50.364;8.958;2023-02-11T06:20:17;53.17;;;34.57;;
17228;SDS011;8731;50.364;8.958;2023-02-11T06:24:41;51.67;;;34.50;;
17228;SDS011;8731;50.364;8.958;2023-02-11T06:29:03;51.00;;;33.33;;
17228;SDS011;8731;50.364;8.958;2023-02-11T06:33:26;47.73;;;32.93;;
17228;SDS011;8731;50.364;8.958;2023-02-11T06:37:48;51.90;;;34.13;;
17228;SDS011;8731;50.364;8.958;2023-02-11T06:42:14;48.47;;;32.50;;
17228;SDS011;8731;50.364;8.958;2023-02-11T06:46:36;49.20;;;34.40;;
17228;SDS011;8731;50.364;8.958;2023-02-11T06:51:00;50.53;;;32.67;;
17228;SDS011;8731;50.364;8.958;2023-02-11T06:55:24;46.53;;;31.10;;
17228;SDS011;8731;50.364;8.958;2023-02-11T06:59:48;49.73;;;30.43;;
17228;SDS011;8731;50.364;8.958;2023-02-11T07:04:11;46.97;;;31.30;;
17228;SDS011;8731;50.364;8.958;2023-02-11T07:08:34;45.57;;;31.50;;
17228;SDS011;8731;50.364;8.958;2023-02-11T07:12:59;47.70;;;31.73;;
17228;SDS011;8731;50.364;8.958;2023-02-11T07:17:23;46.70;;;30.43;;
17228;SDS011;8731;50.364;8.958;2023-02-11T07:21:45;43.97;;;30.43;;
17228;SDS011;8731;50.364;8.958;2023-02-11T07:26:09;44.97;;;30.90;;
17228;SDS011;8731;50.364;8.958;2023-02-11T07:30:34;47.73;;;31.33;;
17228;SDS011;8731;50.364;8.958;2023-02-11T07:34:58;43.37;;;28.40;;
17228;SDS011;8731;50.364;8.958;2023-02-11T07:39:20;45.17;;;30.07;;
17228;SDS011;8731;50.364;8.958;2023-02-11T07:43:46;52.33;;;35.43;;
17228;SDS011;8731;50.364;8.958;2023-02-11T07:48:09;50.57;;;35.83;;
17228;SDS011;8731;50.364;8.958;2023-02-11T07:52:32;56.37;;;36.00;;
17228;SDS011;8731;50.364;8.958;2023-02-11T07:56:54;55.03;;;36.63;;
17228;SDS011;8731;50.364;8.958;2023-02-11T08:01:18;54.73;;;37.17;;
17228;SDS011;8731;50.364;8.958;2023-02-11T08:05:44;48.93;;;34.37;;
17228;SDS011;8731;50.364;8.958;2023-02-11T08:10:08;44.30;;;32.07;;
17228;SDS011;8731;50.364;8.958;2023-02-11T08:14:30;43.20;;;31.40;;
17228;SDS011;8731;50.364;8.958;2023-02-11T08:18:54;45.40;;;29.60;;
17228;SDS011;8731;50.364;8.958;2023-02-11T08:23:18;41.40;;;28.80;;
17228;SDS011;8731;50.364;8.958;2023-02-11T08:27:42;38.83;;;27.10;;
17228;SDS011;8731;50.364;8.958;2023-02-11T08:32:04;43.77;;;31.03;;
17228;SDS011;8731;50.364;8.958;2023-02-11T08:36:27;39.20;;;26.70;;
17228;SDS011;8731;50.364;8.958;2023-02-11T08:40:54;38.80;;;26.30;;
17228;SDS011;8731;50.364;8.958;2023-02-11T08:45:20;39.27;;;26.97;;
17228;SDS011;8731;50.364;8.958;2023-02-11T08:49:43;37.40;;;27.50;;
17228;SDS011;8731;50.364;8.958;2023-02-11T08:54:05;38.83;;;27.40;;
17228;SDS011;8731;50.364;8.958;2023-02-11T08:58:28;39.13;;;27.07;;
17228;SDS011;8731;50.364;8.958;2023-02-11T09:02:52;41.20;;;28.97;;
17228;SDS011;8731;50.364;8.958;2023-02-11T09:07:14;38.53;;;27.60;;
17228;SDS011;8731;50.364;8.958;2023-02-11T09:11:37;38.77;;;27.93;;
17228;SDS011;8731;50.364;8.958;2023-02-11T09:16:01;38.23;;;25.20;;
17228;SDS011;8731;50.364;8.958;2023-02-11T09:20:26;37.50;;;27.37;;
17228;SDS011;8731;50.364;8.958;2023-02-11T09:24:49;38.60;;;26.17;;
17228;SDS011;8731;50.364;8.958;2023-02-11T09:29:11;37.57;;;26.67;;
17228;SDS011;8731;50.364;8.958;2023-02-11T09:33:34;42.43;;;29.37;;
17228;SDS011;8731;50.364;8.958;2023-02-11T09:38:02;43.33;;;29.90;;
17228;SDS011;8731;50.364;8.958;2023-02-11T09:42:42;39.70;;;26.60;;
17228;SDS011;8731;50.364;8.958;2023-02-11T09:47:14;39.97;;;28.30;;
17228;SDS011;8731;50.364;8.958;2023-02-11T09:51:47;32.87;;;24.17;;
17228;SDS011;8731;50.364;8.958;2023-02-11T09:56:18;37.20;;;26.10;;
17228;SDS011;8731;50.364;8.958;2023-02-11T10:00:42;42.47;;;29.63;;
17228;SDS011;8731;50.364;8.958;2023-02-11T10:05:19;36.03;;;27.10;;
17228;SDS011;8731;50.364;8.958;2023-02-11T10:10:01;36.80;;;28.13;;
17228;SDS011;8731;50.364;8.958;2023-02-11T10:14:48;41.70;;;27.67;;
17228;SDS011;8731;50.364;8.958;2023-02-11T10:19:42;38.50;;;25.70;;
17228;SDS011;8731;50.364;8.958;2023-02-11T10:24:20;35.17;;;25.97;;
17228;SDS011;8731;50.364;8.958;2023-02-11T10:28:43;37.80;;;27.47;;
17228;SDS011;8731;50.364;8.958;2023-02-11T10:33:13;35.13;;;27.30;;
17228;SDS011;8731;50.364;8.958;2023-02-11T10:37:42;41.50;;;27.57;;
17228;SDS011;8731;50.364;8.958;2023-02-11T10:42:06;40.10;;;28.03;;
17228;SDS011;8731;50.364;8.958;2023-02-11T10:46:33;40.13;;;26.53;;
17228;SDS011;8731;50.364;8.958;2023-02-11T10:51:07;40.33;;;29.23;;
17228;SDS011;8731;50.364;8.958;2023-02-11T10:55:37;39.30;;;28.40;;
17228;SDS011;8731;50.364;8.958;2023-02-11T11:00:19;36.53;;;28.10;;
17228;SDS011;8731;50.364;8.958;2023-02-11T11:04:56;35.70;;;25.77;;
17228;SDS011;8731;50.364;8.958;2023-02-11T11:09:27;42.03;;;27.67;;
17228;SDS011;8731;50.364;8.958;2023-02-11T11:14:03;40.07;;;26.93;;
17228;SDS011;8731;50.364;8.958;2023-02-11T11:18:25;39.77;;;26.90;;
17228;SDS011;8731;50.364;8.958;2023-02-11T11:22:48;35.43;;;26.13;;
17228;SDS011;8731;50.364;8.958;2023-02-11T11:27:17;38.23;;;27.97;;
17228;SDS011;8731;50.364;8.958;2023-02-11T11:31:48;36.13;;;26.30;;
17228;SDS011;8731;50.364;8.958;2023-02-11T11:36:16;35.83;;;24.77;;
17228;SDS011;8731;50.364;8.958;2023-02-11T11:40:43;35.93;;;26.47;;
17228;SDS011;8731;50.364;8.958;2023-02-11T11:45:21;36.10;;;26.23;;
17228;SDS011;8731;50.364;8.958;2023-02-11T11:49:48;38.43;;;28.70;;
17228;SDS011;8731;50.364;8.958;2023-02-11T11:54:34;39.53;;;28.00;;
17228;SDS011;8731;50.364;8.958;2023-02-11T11:58:59;41.17;;;27.60;;
17228;SDS011;8731;50.364;8.958;2023-02-11T12:08:42;37.93;;;25.47;;
17228;SDS011;8731;50.364;8.958;2023-02-11T12:13:20;38.83;;;27.10;;
17228;SDS011;8731;50.364;8.958;2023-02-11T12:18:06;40.60;;;26.87;;
17228;SDS011;8731;50.364;8.958;2023-02-11T12:22:44;35.53;;;26.37;;
17228;SDS011;8731;50.364;8.958;2023-02-11T12:27:22;35.90;;;26.50;;
17228;SDS011;8731;50.364;8.958;2023-02-11T12:32:13;38.70;;;25.30;;
17228;SDS011;8731;50.364;8.958;2023-02-11T12:36:54;38.37;;;25.03;;
17228;SDS011;8731;50.364;8.958;2023-02-11T12:41:47;33.70;;;24.10;;
17228;SDS011;8731;50.364;8.958;2023-02-11T12:47:11;39.63;;;25.70;;
17228;SDS011;8731;50.364;8.958;2023-02-11T12:51:47;33.23;;;24.87;;
17228;SDS011;8731;50.364;8.958;2023-02-11T12:56:26;36.20;;;25.53;;
17228;SDS011;8731;50.364;8.958;2023-02-11T13:01:05;34.00;;;24.97;;
17228;SDS011;8731;50.364;8.958;2023-02-11T13:05:37;34.50;;;25.30;;
17228;SDS011;8731;50.364;8.958;2023-02-11T13:10:22;32.03;;;24.23;;
17228;SDS011;8731;50.364;8.958;2023-02-11T13:14:52;31.83;;;24.70;;
17228;SDS011;8731;50.364;8.958;2023-02-11T13:19:25;38.07;;;25.07;;
17228;SDS011;8731;50.364;8.958;2023-02-11T13:23:58;36.57;;;24.90;;
17228;SDS011;8731;50.364;8.958;2023-02-11T13:28:35;34.47;;;24.97;;
17228;SDS011;8731;50.364;8.958;2023-02-11T13:37:56;35.47;;;25.33;;
17228;SDS011;8731;50.364;8.958;2023-02-11T13:42:20;37.73;;;24.90;;
17228;SDS011;8731;50.364;8.958;2023-02-11T13:46:47;32.67;;;23.60;;
17228;SDS011;8731;50.364;8.958;2023-02-11T13:51:14;34.10;;;23.77;;
17228;SDS011;8731;50.364;8.958;2023-02-11T13:56:05;36.73;;;25.63;;
17228;SDS011;8731;50.364;8.958;2023-02-11T14:00:42;34.97;;;24.33;;
17228;SDS011;8731;50.364;8.958;2023-02-11T14:10:11;37.40;;;25.03;;
17228;SDS011;8731;50.364;8.958;2023-02-11T14:15:27;33.80;;;23.33;;
17228;SDS011;8731;50.364;8.958;2023-02-11T14:20:01;38.33;;;25.53;;
17228;SDS011;8731;50.364;8.958;2023-02-11T14:24:45;34.67;;;24.00;;
17228;SDS011;8731;50.364;8.958;2023-02-11T14:29:14;32.73;;;23.80;;
17228;SDS011;8731;50.364;8.958;2023-02-11T14:33:49;38.03;;;25.70;;
17228;SDS011;8731;50.364;8.958;2023-02-11T14:38:30;32.47;;;23.27;;
17228;SDS011;8731;50.364;8.958;2023-02-11T14:43:09;32.30;;;22.20;;
17228;SDS011;8731;50.364;8.958;2023-02-11T14:47:39;30.13;;;22.23;;
17228;SDS011;8731;50.364;8.958;2023-02-11T14:52:16;32.83;;;23.20;;
17228;SDS011;8731;50.364;8.958;2023-02-11T14:57:07;32.10;;;23.43;;
17228;SDS011;8731;50.364;8.958;2023-02-11T15:01:34;31.83;;;22.33;;
17228;SDS011;8731;50.364;8.958;2023-02-11T15:06:03;27.50;;;21.10;;
17228;SDS011;8731;50.364;8.958;2023-02-11T15:10:35;31.50;;;22.63;;
17228;SDS011;8731;50.364;8.958;2023-02-11T15:15:03;31.50;;;21.77;;
17228;SDS011;8731;50.364;8.958;2023-02-11T15:19:27;31.67;;;22.33;;
17228;SDS011;8731;50.364;8.958;2023-02-11T15:23:54;27.97;;;20.63;;
17228;SDS011;8731;50.364;8.958;2023-02-11T15:28:22;28.57;;;21.07;;
17228;SDS011;8731;50.364;8.958;2023-02-11T15:32:48;31.63;;;22.87;;
17228;SDS011;8731;50.364;8.958;2023-02-11T15:37:18;27.83;;;21.43;;
17228;SDS011;8731;50.364;8.958;2023-02-11T15:41:43;29.50;;;22.00;;
17228;SDS011;8731;50.364;8.958;2023-02-11T15:46:07;31.73;;;21.77;;
17228;SDS011;8731;50.364;8.958;2023-02-11T15:50:32;34.83;;;22.07;;
17228;SDS011;8731;50.364;8.958;2023-02-11T15:54:57;28.93;;;21.70;;
17228;SDS011;8731;50.364;8.958;2023-02-11T15:59:24;29.17;;;21.50;;
17228;SDS011;8731;50.364;8.958;2023-02-11T16:03:51;33.00;;;22.53;;
17228;SDS011;8731;50.364;8.958;2023-02-11T16:08:19;31.87;;;22.37;;
17228;SDS011;8731;50.364;8.958;2023-02-11T16:12:49;34.87;;;26.17;;
17228;SDS011;8731;50.364;8.958;2023-02-11T16:17:20;39.67;;;27.03;;
17228;SDS011;8731;50.364;8.958;2023-02-11T16:21:48;35.30;;;26.13;;
17228;SDS011;8731;50.364;8.958;2023-02-11T16:30:49;30.70;;;21.37;;
17228;SDS011;8731;50.364;8.958;2023-02-11T16:35:13;26.17;;;20.27;;
17228;SDS011;8731;50.364;8.958;2023-02-11T16:39:37;29.90;;;20.03;;
17228;SDS011;8731;50.364;8.958;2023-02-11T16:44:00;35.40;;;25.73;;
17228;SDS011;8731;50.364;8.958;2023-02-11T16:48:22;34.30;;;24.43;;
17228;SDS011;8731;50.364;8.958;2023-02-11T16:52:45;29.00;;;21.77;;
17228;SDS011;8731;50.364;8.958;2023-02-11T16:57:09;29.60;;;20.93;;
17228;SDS011;8731;50.364;8.958;2023-02-11T17:01:38;28.73;;;21.03;;
17228;SDS011;8731;50.364;8.958;2023-02-11T17:06:02;33.83;;;21.80;;
17228;SDS011;8731;50.364;8.958;2023-02-11T17:10:26;28.17;;;22.13;;
17228;SDS011;8731;50.364;8.958;2023-02-11T17:14:51;27.13;;;21.27;;
17228;SDS011;8731;50.364;8.958;2023-02-11T17:19:14;26.47;;;20.43;;
17228;SDS011;8731;50.364;8.958;2023-02-11T17:23:40;27.90;;;21.20;;
17228;SDS011;8731;50.364;8.958;2023-02-11T17:28:02;26.87;;;20.07;;
17228;SDS011;8731;50.364;8.958;2023-02-11T17:32:28;29.73;;;21.07;;
17228;SDS011;8731;50.364;8.958;2023-02-11T17:36:51;27.77;;;20.63;;
17228;SDS011;8731;50.364;8.958;2023-02-11T17:41:13;30.83;;;20.97;;
17228;SDS011;8731;50.364;8.958;2023-02-11T17:45:39;30.60;;;21.93;;
17228;SDS011;8731;50.364;8.958;2023-02-11T17:50:03;31.10;;;21.27;;
17228;SDS011;8731;50.364;8.958;2023-02-11T17:54:27;28.60;;;21.03;;
17228;SDS011;8731;50.364;8.958;2023-02-11T17:58:49;28.00;;;19.93;;
17228;SDS011;8731;50.364;8.958;2023-02-11T18:03:12;35.27;;;24.47;;
17228;SDS011;8731;50.364;8.958;2023-02-11T18:07:36;35.20;;;26.37;;
17228;SDS011;8731;50.364;8.958;2023-02-11T18:11:58;43.83;;;29.43;;
17228;SDS011;8731;50.364;8.958;2023-02-11T18:16:20;64.37;;;38.30;;
17228;SDS011;8731;50.364;8.958;2023-02-11T18:20:54;45.63;;;34.60;;
17228;SDS011;8731;50.364;8.958;2023-02-11T18:25:18;35.20;;;28.53;;
17228;SDS011;8731;50.364;8.958;2023-02-11T18:29:41;38.70;;;29.13;;
17228;SDS011;8731;50.364;8.958;2023-02-11T18:34:04;33.67;;;24.13;;
17228;SDS011;8731;50.364;8.958;2023-02-11T18:38:29;36.53;;;24.90;;
17228;SDS011;8731;50.364;8.958;2023-02-11T18:42:53;36.33;;;24.47;;
17228;SDS011;8731;50.364;8.958;2023-02-11T18:47:16;30.67;;;21.70;;
17228;SDS011;8731;50.364;8.958;2023-02-11T18:51:39;31.77;;;23.17;;
17228;SDS011;8731;50.364;8.958;2023-02-11T18:56:04;32.57;;;23.10;;
17228;SDS011;8731;50.364;8.958;2023-02-11T19:00:29;31.80;;;22.07;;
17228;SDS011;8731;50.364;8.958;2023-02-11T19:04:51;29.43;;;21.63;;
17228;SDS011;8731;50.364;8.958;2023-02-11T19:09:14;28.80;;;20.17;;
17228;SDS011;8731;50.364;8.958;2023-02-11T19:13:39;26.27;;;19.73;;
17228;SDS011;8731;50.364;8.958;2023-02-11T19:18:03;26.23;;;18.87;;
17228;SDS011;8731;50.364;8.958;2023-02-11T19:22:26;24.87;;;19.00;;
17228;SDS011;8731;50.364;8.958;2023-02-11T19:26:49;27.70;;;18.87;;
17228;SDS011;8731;50.364;8.958;2023-02-11T19:31:15;27.23;;;20.17;;
17228;SDS011;8731;50.364;8.958;2023-02-11T19:35:38;30.53;;;22.47;;
17228;SDS011;8731;50.364;8.958;2023-02-11T19:40:01;30.47;;;22.50;;
17228;SDS011;8731;50.364;8.958;2023-02-11T19:44:24;35.30;;;26.13;;
17228;SDS011;8731;50.364;8.958;2023-02-11T19:48:47;34.77;;;25.27;;
17228;SDS011;8731;50.364;8.958;2023-02-11T19:53:11;34.53;;;23.67;;
17228;SDS011;8731;50.364;8.958;2023-02-11T19:57:33;41.60;;;28.07;;
17228;SDS011;8731;50.364;8.958;2023-02-11T20:01:57;40.13;;;27.90;;
17228;SDS011;8731;50.364;8.958;2023-02-11T20:06:21;51.83;;;33.27;;
17228;SDS011;8731;50.364;8.958;2023-02-11T20:10:48;46.07;;;31.23;;
17228;SDS011;8731;50.364;8.958;2023-02-11T20:15:10;49.37;;;30.17;;
17228;SDS011;8731;50.364;8.958;2023-02-11T20:19:32;38.83;;;26.43;;
17228;SDS011;8731;50.364;8.958;2023-02-11T20:23:55;36.70;;;24.70;;
17228;SDS011;8731;50.364;8.958;2023-02-11T20:28:19;33.53;;;23.40;;
17228;SDS011;8731;50.364;8.958;2023-02-11T20:32:42;30.53;;;22.30;;
17228;SDS011;8731;50.364;8.958;2023-02-11T20:37:04;32.30;;;23.20;;
17228;SDS011;8731;50.364;8.958;2023-02-11T20:41:28;35.60;;;23.27;;
17228;SDS011;8731;50.364;8.958;2023-02-11T20:45:54;27.83;;;20.10;;
17228;SDS011;8731;50.364;8.958;2023-02-11T20:50:21;27.40;;;19.10;;
17228;SDS011;8731;50.364;8.958;2023-02-11T20:54:43;26.20;;;19.30;;
17228;SDS011;8731;50.364;8.958;2023-02-11T20:59:06;27.07;;;19.63;;
17228;SDS011;8731;50.364;8.958;2023-02-11T21:03:30;25.97;;;19.50;;
17228;SDS011;8731;50.364;8.958;2023-02-11T21:07:52;25.13;;;19.10;;
17228;SDS011;8731;50.364;8.958;2023-02-11T21:12:14;28.27;;;21.23;;
17228;SDS011;8731;50.364;8.958;2023-02-11T21:16:36;27.30;;;20.53;;
17228;SDS011;8731;50.364;8.958;2023-02-11T21:21:01;35.50;;;23.57;;
17228;SDS011;8731;50.364;8.958;2023-02-11T21:25:23;28.87;;;22.00;;
17228;SDS011;8731;50.364;8.958;2023-02-11T21:29:45;33.00;;;23.90;;
17228;SDS011;8731;50.364;8.958;2023-02-11T21:34:08;34.00;;;23.97;;
17228;SDS011;8731;50.364;8.958;2023-02-11T21:38:32;32.33;;;23.00;;
17228;SDS011;8731;50.364;8.958;2023-02-11T21:42:55;31.80;;;22.77;;
17228;SDS011;8731;50.364;8.958;2023-02-11T21:47:18;34.90;;;25.73;;
17228;SDS011;8731;50.364;8.958;2023-02-11T21:51:40;37.40;;;27.83;;
17228;SDS011;8731;50.364;8.958;2023-02-11T21:56:04;38.57;;;26.73;;
17228;SDS011;8731;50.364;8.958;2023-02-11T22:00:29;40.23;;;29.50;;
17228;SDS011;8731;50.364;8.958;2023-02-11T22:04:52;42.17;;;29.67;;
17228;SDS011;8731;50.364;8.958;2023-02-11T22:09:15;40.87;;;30.37;;
17228;SDS011;8731;50.364;8.958;2023-02-11T22:13:39;40.17;;;29.10;;
17228;SDS011;8731;50.364;8.958;2023-02-11T22:18:02;44.13;;;28.67;;
17228;SDS011;8731;50.364;8.958;2023-02-11T22:22:24;42.10;;;29.23;;
17228;SDS011;8731;50.364;8.958;2023-02-11T22:26:48;38.43;;;27.50;;
17228;SDS011;8731;50.364;8.958;2023-02-11T22:31:12;38.23;;;28.50;;
17228;SDS011;8731;50.364;8.958;2023-02-11T22:35:37;40.83;;;28.20;;
17228;SDS011;8731;50.364;8.958;2023-02-11T22:40:00;37.37;;;26.63;;
17228;SDS011;8731;50.364;8.958;2023-02-11T22:44:22;38.57;;;27.03;;
17228;SDS011;8731;50.364;8.958;2023-02-11T22:48:47;36.93;;;27.30;;
17228;SDS011;8731;50.364;8.958;2023-02-11T22:53:10;35.03;;;26.43;;
17228;SDS011;8731;50.364;8.958;2023-02-11T22:57:32;42.07;;;27.03;;
17228;SDS011;8731;50.364;8.958;2023-02-11T23:01:54;35.27;;;25.03;;
17228;SDS011;8731;50.364;8.958;2023-02-11T23:06:18;39.30;;;27.33;;
17228;SDS011;8731;50.364;8.958;2023-02-11T23:10:40;40.13;;;26.97;;
17228;SDS011;8731;50.364;8.958;2023-02-11T23:15:03;35.70;;;26.43;;
17228;SDS011;8731;50.364;8.958;2023-02-11T23:19:26;40.60;;;26.67;;
17228;SDS011;8731;50.364;8.958;2023-02-11T23:23:52;37.30;;;26.23;;
17228;SDS011;8731;50.364;8.958;2023-02-11T23:28:16;36.60;;;26.73;;
17228;SDS011;8731;50.364;8.958;2023-02-11T23:32:38;37.20;;;26.30;;
17228;SDS011;8731;50.364;8.958;2023-02-11T23:37:00;35.40;;;27.13;;
17228;SDS011;8731;50.364;8.958;2023-02-11T23:41:24;37.40;;;27.27;;
17228;SDS011;8731;50.364;8.958;2023-02-11T23:45:46;37.90;;;26.67;;
17228;SDS011;8731;50.364;8.958;2023-02-11T23:50:11;37.57;;;25.43;;
17228;SDS011;8731;50.364;8.958;2023-02-11T23:54:33;41.90;;;29.07;;
17228;SDS011;8731;50.364;8.958;2023-02-11T23:58:57;37.00;;;26.40;;
